createdAt,value
2018-08-18T04:08:28.952Z,8.23
2018-08-18T04:18:39.485Z,7.63
2018-08-18T04:28:49.734Z,8.20
2018-08-18T04:38:52.635Z,7.97
2018-08-18T04:48:55.308Z,7.90
2018-08-18T04:58:59.975Z,9.87
2018-08-18T05:09:04.768Z,10.20
2018-08-18T05:19:07.437Z,10.70
2018-08-18T05:29:09.928Z,10.60
2018-08-18T05:39:12.497Z,11.07
2018-08-18T05:49:17.031Z,11.27
2018-08-18T05:59:19.600Z,10.13
2018-08-18T06:09:23.112Z,12.47
2018-08-18T06:19:25.772Z,11.47
2018-08-18T06:29:28.374Z,12.90
2018-08-18T06:39:46.867Z,12.53
2018-08-18T06:49:49.379Z,12.83
2018-08-18T06:59:52.240Z,11.50
2018-08-18T07:09:55.104Z,13.13
2018-08-18T07:19:57.697Z,15.03
2018-08-18T07:30:00.255Z,10.90
2018-08-18T07:40:03.178Z,13.03
2018-08-18T07:50:09.722Z,10.33
2018-08-18T08:00:13.492Z,10.73
2018-08-18T08:10:17.979Z,11.00
2018-08-18T08:20:21.864Z,8.93
2018-08-18T08:30:29.951Z,9.53
2018-08-18T08:40:33.124Z,9.77
2018-08-18T08:50:36.013Z,9.63
2018-08-18T09:00:39.010Z,8.10
2018-08-18T09:10:42.019Z,6.47
2018-08-18T09:20:46.414Z,6.43
2018-08-18T09:30:48.942Z,7.67
2018-08-18T09:40:51.564Z,6.47
2018-08-18T09:50:57.074Z,7.17
2018-08-18T10:01:01.644Z,5.97
2018-08-18T10:11:07.275Z,5.90
2018-08-18T10:21:13.438Z,5.20
2018-08-18T10:31:16.682Z,5.57
2018-08-18T10:41:19.304Z,6.93
2018-08-18T10:51:38.174Z,6.40
2018-08-18T11:02:05.335Z,7.07
2018-08-18T11:12:07.847Z,5.43
2018-08-18T11:23:18.610Z,6.20
2018-08-18T11:33:37.688Z,6.50
2018-08-18T11:43:45.760Z,5.90
2018-08-18T11:53:57.100Z,5.40
2018-08-18T12:03:59.711Z,6.07
2018-08-18T12:14:08.134Z,6.37
2018-08-18T12:24:12.013Z,5.70
2018-08-18T12:34:18.682Z,6.60
2018-08-18T12:44:25.711Z,6.13
2018-08-18T12:54:28.258Z,6.27
2018-08-18T13:04:31.584Z,6.33
2018-08-18T13:14:36.637Z,6.30
2018-08-18T13:24:39.655Z,7.30
2018-08-18T13:34:42.694Z,6.80
2018-08-18T13:44:45.892Z,6.60
2018-08-18T13:54:52.618Z,5.80
2018-08-18T14:04:55.902Z,6.20
2018-08-18T14:15:04.635Z,6.40
2018-08-18T14:25:08.667Z,5.33
2018-08-18T14:35:11.207Z,5.80
2018-08-18T14:45:17.051Z,6.23
2018-08-18T14:55:19.613Z,6.33
2018-08-18T15:05:22.234Z,5.33
2018-08-18T15:15:24.931Z,5.60
2018-08-18T15:25:27.692Z,6.60
2018-08-18T15:35:30.271Z,6.63
2018-08-18T15:45:37.406Z,8.60
2018-08-18T15:55:40.530Z,6.47
2018-08-18T16:05:43.052Z,6.73
2018-08-18T16:15:45.706Z,6.27
2018-08-18T16:25:48.526Z,6.50
2018-08-18T16:35:51.195Z,6.07
2018-08-18T16:45:53.839Z,6.20
2018-08-18T16:56:06.956Z,6.50
2018-08-18T17:06:09.643Z,6.80
2018-08-18T17:16:16.537Z,8.00
2018-08-18T17:26:19.062Z,6.80
2018-08-18T17:36:24.888Z,7.07
2018-08-18T17:46:27.528Z,7.80
2018-08-18T17:56:32.255Z,6.67
2018-08-18T18:06:40.955Z,6.77
2018-08-18T18:16:46.903Z,8.10
2018-08-18T18:26:49.609Z,7.70
2018-08-18T18:36:52.173Z,6.70
2018-08-18T18:46:54.734Z,7.53
2018-08-18T18:57:02.147Z,8.57
2018-08-18T19:07:05.671Z,8.37
2018-08-18T19:17:08.262Z,7.90
2018-08-18T19:27:11.784Z,7.20
2018-08-18T19:37:16.349Z,13.90
2018-08-18T19:47:24.738Z,9.20
2018-08-18T19:57:33.051Z,10.70
2018-08-18T20:07:35.588Z,16.87
2018-08-18T20:17:40.999Z,14.30
2018-08-18T20:27:44.448Z,15.30
2018-08-18T20:37:47.383Z,13.53
2018-08-18T20:47:55.421Z,11.97
2018-08-18T20:58:01.844Z,9.57
2018-08-18T21:08:09.857Z,10.20
2018-08-18T21:18:17.804Z,14.13
2018-08-18T21:28:27.334Z,9.07
2018-08-18T21:38:29.879Z,10.37
2018-08-18T21:48:44.227Z,10.10
2018-08-18T21:58:46.818Z,11.53
2018-08-18T22:08:49.701Z,10.80
2018-08-18T22:19:02.459Z,9.53
2018-08-18T22:29:06.100Z,12.43
2018-08-18T22:39:11.566Z,13.70
2018-08-18T22:49:14.195Z,12.47
2018-08-18T22:59:16.825Z,12.50
2018-08-18T23:09:20.650Z,12.47
2018-08-18T23:19:26.417Z,10.77
2018-08-18T23:29:29.034Z,12.60
2018-08-18T23:39:31.691Z,11.40
2018-08-18T23:49:35.339Z,10.03
2018-08-18T23:59:37.903Z,10.13
